Time;durP1;ratioP1;P1;durP2;ratioP2;P2;SDS_P1;SDS_P2;PMS_P1;PMS_P2;Temp;Humidity;BMP_temperature;BMP_pressure;BME280_temperature;BME280_humidity;BME280_pressure;Samples;Min_cycle;Max_cycle;Signal;HPM_P1;HPM_P2
2021/10/21 00:01:23;;;;;;;4.00;2.33;;;21.60;73.00;;;;;;5072850;28;20013;-64
2021/10/21 00:03:50;;;;;;;7.75;3.95;;;21.60;73.80;;;;;;5072281;28;20445;-60
2021/10/21 00:06:18;;;;;;;4.10;2.70;;;21.70;73.70;;;;;;5071337;28;20146;-59
2021/10/21 00:08:45;;;;;;;5.03;3.22;;;21.70;73.00;;;;;;5072482;28;20031;-62
2021/10/21 00:11:12;;;;;;;5.10;3.15;;;21.70;73.00;;;;;;5072219;28;20102;-62
2021/10/21 00:13:40;;;;;;;4.50;2.90;;;21.70;72.80;;;;;;5072807;28;20028;-60
2021/10/21 00:16:07;;;;;;;5.93;2.92;;;21.60;73.30;;;;;;5072632;28;20029;-60
2021/10/21 00:18:35;;;;;;;4.88;2.65;;;21.60;73.60;;;;;;5072277;28;20055;-60
2021/10/21 00:21:02;;;;;;;3.72;2.28;;;21.70;74.30;;;;;;5072471;28;20432;-64
2021/10/21 00:23:29;;;;;;;9.55;2.50;;;21.70;74.30;;;;;;5071352;28;20024;-63
2021/10/21 00:25:57;;;;;;;6.25;2.90;;;21.80;74.50;;;;;;5072364;28;20096;-63
2021/10/21 00:28:24;;;;;;;4.63;2.55;;;21.90;73.10;;;;;;5072717;28;20016;-63
2021/10/21 00:30:51;;;;;;;6.00;2.95;;;21.90;74.00;;;;;;5072517;28;20037;-63
2021/10/21 00:33:19;;;;;;;5.22;2.45;;;21.90;74.10;;;;;;5072566;28;20371;-64
2021/10/21 00:35:46;;;;;;;5.05;2.97;;;22.10;72.70;;;;;;5072977;28;20115;-64
2021/10/21 00:38:13;;;;;;;5.32;2.20;;;22.00;72.70;;;;;;5072016;28;20340;-63
2021/10/21 00:40:40;;;;;;;4.88;2.70;;;22.10;72.50;;;;;;5072356;28;20075;-61
2021/10/21 00:43:08;;;;;;;4.00;2.30;;;22.10;72.20;;;;;;5072444;28;20032;-62
2021/10/21 00:45:35;;;;;;;3.45;2.60;;;22.20;71.60;;;;;;5072292;28;20024;-63
2021/10/21 00:48:03;;;;;;;5.88;2.38;;;22.10;71.90;;;;;;5072103;28;20035;-59
2021/10/21 00:50:31;;;;;;;4.43;2.25;;;22.20;71.60;;;;;;5072657;28;20024;-65
2021/10/21 00:53:00;;;;;;;3.22;2.38;;;22.10;72.20;;;;;;5071885;28;20083;-62
2021/10/21 00:55:27;;;;;;;5.70;2.67;;;22.20;72.00;;;;;;5071672;28;20025;-62
2021/10/21 00:57:55;;;;;;;3.75;2.60;;;22.10;72.50;;;;;;5071644;28;20029;-64
2021/10/21 01:00:23;;;;;;;2.65;1.88;;;22.10;72.30;;;;;;5072001;28;20024;-64
2021/10/21 01:02:50;;;;;;;3.83;2.10;;;22.10;72.50;;;;;;5070782;28;20119;-63
2021/10/21 01:05:18;;;;;;;4.03;2.55;;;22.20;72.10;;;;;;5071935;28;20024;-61
2021/10/21 01:07:45;;;;;;;3.88;2.47;;;22.30;72.10;;;;;;5072463;28;20040;-60
2021/10/21 01:10:12;;;;;;;4.38;2.00;;;22.30;72.00;;;;;;5071432;28;20043;-59
2021/10/21 01:12:40;;;;;;;5.03;2.65;;;22.40;72.00;;;;;;5071928;28;20076;-58
2021/10/21 01:15:18;;;;;;;4.47;1.85;;;22.40;71.80;;;;;;5071295;28;20024;-62
2021/10/21 01:17:46;;;;;;;2.85;1.90;;;22.50;71.50;;;;;;5063821;28;20387;-56
2021/10/21 01:20:14;;;;;;;3.97;1.95;;;22.60;71.30;;;;;;5068678;28;20070;-60
2021/10/21 01:22:42;;;;;;;2.78;1.77;;;22.60;69.60;;;;;;5069208;28;20058;-65
2021/10/21 01:25:10;;;;;;;3.00;1.77;;;22.60;70.90;;;;;;5067388;28;20422;-61
2021/10/21 01:27:37;;;;;;;5.82;2.20;;;22.60;71.40;;;;;;5068975;28;20036;-62
2021/10/21 01:30:06;;;;;;;3.08;1.58;;;22.70;70.60;;;;;;5069323;28;20104;-62
2021/10/21 01:32:37;;;;;;;6.35;1.90;;;22.80;70.10;;;;;;5067572;28;20056;-62
2021/10/21 01:35:05;;;;;;;3.65;1.60;;;22.80;70.50;;;;;;5066302;28;20521;-59
2021/10/21 01:37:32;;;;;;;6.70;2.22;;;22.90;69.90;;;;;;5068407;28;20044;-58
2021/10/21 01:40:01;;;;;;;2.97;1.70;;;23.00;69.80;;;;;;5067247;28;20028;-61
2021/10/21 01:42:28;;;;;;;3.15;1.77;;;23.20;68.30;;;;;;5067324;28;20132;-61
2021/10/21 01:44:55;;;;;;;6.25;1.58;;;23.10;69.80;;;;;;5065281;28;20024;-61
2021/10/21 01:47:23;;;;;;;2.58;1.25;;;23.20;68.80;;;;;;5068286;28;20389;-61
2021/10/21 01:49:50;;;;;;;2.15;1.70;;;23.20;69.20;;;;;;5068010;28;20458;-60
2021/10/21 01:52:18;;;;;;;4.35;2.17;;;23.30;68.80;;;;;;5070715;28;20127;-61
2021/10/21 01:54:45;;;;;;;3.10;1.70;;;23.40;68.70;;;;;;5068355;28;20032;-64
2021/10/21 01:57:12;;;;;;;3.53;1.98;;;23.50;68.50;;;;;;5071862;28;20036;-62
2021/10/21 01:59:40;;;;;;;3.90;1.85;;;23.40;69.10;;;;;;5071714;28;20028;-64
2021/10/21 02:02:07;;;;;;;3.28;1.80;;;23.30;68.90;;;;;;5072722;28;20031;-61
2021/10/21 02:04:34;;;;;;;2.53;1.65;;;23.30;69.70;;;;;;5063709;28;20077;-62
2021/10/21 02:07:02;;;;;;;3.22;1.80;;;23.30;69.50;;;;;;5071210;28;20047;-61
2021/10/21 02:09:31;;;;;;;1.92;1.25;;;23.30;69.30;;;;;;5070946;28;20116;-62
2021/10/21 02:11:58;;;;;;;3.20;1.63;;;23.40;69.20;;;;;;5070271;28;20040;-62
2021/10/21 02:14:25;;;;;;;3.10;1.38;;;23.30;69.10;;;;;;5067859;28;20395;-64
2021/10/21 02:16:53;;;;;;;4.03;1.88;;;23.30;69.70;;;;;;5071722;28;20100;-65
2021/10/21 02:19:20;;;;;;;3.45;1.98;;;23.20;70.40;;;;;;5071602;28;20028;-58
2021/10/21 02:21:47;;;;;;;2.58;1.20;;;23.20;69.90;;;;;;5073912;28;20028;-61
2021/10/21 02:24:15;;;;;;;3.58;1.15;;;23.30;69.60;;;;;;5074546;28;20050;-63
2021/10/21 02:26:42;;;;;;;2.47;1.50;;;23.20;69.70;;;;;;5074436;28;20493;-61
2021/10/21 02:29:09;;;;;;;2.53;1.50;;;23.10;70.70;;;;;;5074716;28;20119;-62
2021/10/21 02:31:38;;;;;;;4.43;1.45;;;23.10;70.50;;;;;;5074783;28;20313;-60
2021/10/21 02:34:05;;;;;;;2.42;1.27;;;23.20;70.40;;;;;;5074751;28;20440;-65
2021/10/21 02:36:33;;;;;;;3.92;1.38;;;23.30;70.40;;;;;;5073326;28;20028;-63
2021/10/21 02:39:01;;;;;;;2.42;1.50;;;23.30;68.90;;;;;;5074546;28;20043;-63
2021/10/21 02:41:28;;;;;;;2.08;1.33;;;23.40;70.10;;;;;;5074176;28;20016;-63
2021/10/21 02:43:56;;;;;;;3.38;1.60;;;23.20;70.40;;;;;;5073706;28;20036;-59
2021/10/21 02:46:24;;;;;;;2.17;1.55;;;23.30;70.50;;;;;;5074631;28;20037;-57
2021/10/21 02:48:51;;;;;;;3.17;1.17;;;23.10;71.60;;;;;;5074167;28;20021;-57
2021/10/21 02:51:19;;;;;;;2.22;1.35;;;23.30;69.60;;;;;;5074405;28;20070;-61
2021/10/21 02:53:48;;;;;;;2.60;1.55;;;23.30;70.70;;;;;;5074414;28;20116;-60
2021/10/21 02:56:16;;;;;;;4.88;1.50;;;23.30;71.40;;;;;;5074456;28;20112;-60
2021/10/21 02:58:43;;;;;;;2.58;1.27;;;23.30;68.10;;;;;;5064694;28;20039;-65
2021/10/21 03:01:11;;;;;;;2.40;1.25;;;23.40;66.60;;;;;;5068533;28;20482;-62
2021/10/21 03:03:38;;;;;;;3.00;1.50;;;23.40;68.20;;;;;;5073600;28;20029;-62
2021/10/21 03:06:06;;;;;;;3.15;1.20;;;23.30;69.40;;;;;;5073959;28;20021;-62
2021/10/21 03:08:33;;;;;;;4.80;1.23;;;23.30;68.00;;;;;;5074195;28;20047;-61
2021/10/21 03:11:00;;;;;;;2.58;1.15;;;23.40;67.30;;;;;;5073822;28;20085;-62
2021/10/21 03:13:27;;;;;;;3.30;1.55;;;23.30;68.40;;;;;;5073777;28;20099;-62
2021/10/21 03:15:55;;;;;;;2.33;1.48;;;23.30;66.60;;;;;;5072215;28;20029;-62
2021/10/21 03:18:22;;;;;;;2.80;1.63;;;23.30;68.70;;;;;;5073783;28;20032;-62
2021/10/21 03:20:50;;;;;;;3.28;1.38;;;23.30;70.40;;;;;;5073594;28;20021;-63
2021/10/21 03:23:19;;;;;;;1.27;0.98;;;23.30;70.00;;;;;;5072448;28;20540;-62
2021/10/21 03:25:47;;;;;;;3.15;1.20;;;23.40;69.50;;;;;;5073207;28;20042;-63
2021/10/21 03:28:14;;;;;;;1.73;1.05;;;23.30;70.30;;;;;;5073153;28;20490;-62
2021/10/21 03:30:42;;;;;;;2.15;1.23;;;23.40;69.10;;;;;;5072548;28;20028;-62
2021/10/21 03:33:09;;;;;;;4.88;1.50;;;23.40;67.60;;;;;;5073395;28;20055;-62
2021/10/21 03:35:36;;;;;;;2.58;1.15;;;23.50;69.60;;;;;;5073092;28;20356;-63
2021/10/21 03:38:04;;;;;;;5.03;1.27;;;23.60;68.90;;;;;;5073164;28;20032;-60
2021/10/21 03:40:31;;;;;;;3.70;1.17;;;23.50;69.20;;;;;;5073219;28;20100;-62
2021/10/21 03:42:59;;;;;;;1.42;1.02;;;23.70;67.80;;;;;;5073226;28;20029;-62
2021/10/21 03:45:26;;;;;;;1.92;1.00;;;23.60;67.60;;;;;;5072631;28;20052;-60
2021/10/21 03:47:53;;;;;;;2.67;1.08;;;23.70;67.80;;;;;;5072563;28;20016;-63
2021/10/21 03:50:21;;;;;;;2.63;1.00;;;23.60;68.80;;;;;;5072984;28;20031;-62
2021/10/21 03:52:48;;;;;;;1.85;0.90;;;23.70;68.70;;;;;;5072480;28;20132;-62
2021/10/21 03:55:15;;;;;;;5.00;1.50;;;23.60;68.70;;;;;;5072605;28;20056;-62
2021/10/21 03:57:43;;;;;;;3.35;1.10;;;23.70;68.50;;;;;;5072590;28;20037;-62
2021/10/21 04:00:10;;;;;;;3.50;1.30;;;23.80;66.50;;;;;;5072833;28;20055;-62
2021/10/21 04:02:41;;;;;;;4.47;1.20;;;23.80;66.20;;;;;;5072871;28;20056;-56
2021/10/21 04:05:09;;;;;;;3.33;1.10;;;23.90;65.30;;;;;;5072602;28;20029;-56
2021/10/21 04:07:36;;;;;;;5.70;1.20;;;24.00;65.80;;;;;;5072220;28;20028;-55
2021/10/21 04:10:05;;;;;;;4.28;1.40;;;24.20;60.40;;;;;;5072226;28;20100;-56
2021/10/21 04:12:32;;;;;;;3.00;0.88;;;24.20;61.50;;;;;;5072387;28;20043;-58
2021/10/21 04:15:00;;;;;;;4.20;1.02;;;24.30;60.80;;;;;;5072131;28;20020;-54
2021/10/21 04:17:27;;;;;;;6.68;1.50;;;24.30;62.30;;;;;;5072576;28;20021;-64
2021/10/21 04:19:54;;;;;;;7.22;1.40;;;24.40;56.70;;;;;;5072141;28;20024;-63
2021/10/21 04:22:22;;;;;;;3.28;1.00;;;23.90;62.50;;;;;;5072298;28;20127;-65
2021/10/21 04:24:49;;;;;;;9.90;1.35;;;23.70;65.00;;;;;;5061611;28;20040;-67
2021/10/21 04:27:17;;;;;;;4.53;0.88;;;23.70;57.60;;;;;;5069519;28;20077;-61
2021/10/21 04:29:44;;;;;;;2.67;1.00;;;23.60;57.00;;;;;;5069086;28;20040;-64
2021/10/21 04:32:12;;;;;;;2.33;0.95;;;23.70;60.20;;;;;;5067898;28;20048;-62
2021/10/21 04:34:39;;;;;;;6.63;3.47;;;23.80;62.80;;;;;;5067383;28;20025;-65
2021/10/21 04:37:06;;;;;;;5.10;1.27;;;23.90;59.30;;;;;;5068847;28;20036;-63
2021/10/21 04:39:34;;;;;;;2.67;0.70;;;23.70;58.10;;;;;;5069055;28;20546;-63
2021/10/21 04:42:01;;;;;;;6.75;1.02;;;23.50;58.30;;;;;;5067768;28;20028;-64
2021/10/21 04:44:29;;;;;;;5.93;1.55;;;23.30;64.80;;;;;;5065081;28;20024;-63
2021/10/21 04:46:56;;;;;;;4.32;1.60;;;23.10;67.10;;;;;;5068142;28;20181;-62
2021/10/21 04:49:23;;;;;;;5.78;1.50;;;23.30;66.10;;;;;;5068431;28;20115;-60
2021/10/21 04:51:51;;;;;;;3.30;0.90;;;23.40;64.70;;;;;;5066163;28;20060;-60
2021/10/21 04:54:19;;;;;;;3.92;1.38;;;23.50;59.90;;;;;;5064946;28;20032;-61
2021/10/21 04:56:46;;;;;;;6.32;3.17;;;23.30;65.50;;;;;;5069054;28;20028;-61
2021/10/21 04:59:14;;;;;;;4.05;2.60;;;23.30;64.40;;;;;;5067654;28;20035;-61
2021/10/21 05:01:41;;;;;;;5.93;2.63;;;23.40;66.10;;;;;;5068812;28;20047;-65
2021/10/21 05:04:09;;;;;;;5.10;3.10;;;23.30;67.80;;;;;;5064418;28;20036;-61
2021/10/21 05:06:36;;;;;;;8.23;3.00;;;23.30;67.90;;;;;;5068069;28;20073;-66
2021/10/21 05:09:04;;;;;;;4.00;2.85;;;23.40;68.50;;;;;;5068704;28;20054;-61
2021/10/21 05:11:31;;;;;;;4.78;4.28;;;23.30;66.20;;;;;;5068602;28;20029;-62
2021/10/21 05:13:59;;;;;;;5.30;3.55;;;23.30;66.50;;;;;;5063206;28;20036;-63
2021/10/21 05:16:26;;;;;;;10.35;8.50;;;23.40;66.30;;;;;;5068319;28;20021;-60
2021/10/21 05:18:53;;;;;;;10.63;9.43;;;23.40;66.10;;;;;;5068171;28;20395;-63
2021/10/21 05:21:21;;;;;;;6.78;5.85;;;23.40;66.80;;;;;;5068790;28;20490;-61
2021/10/21 05:23:48;;;;;;;15.85;14.55;;;23.40;67.10;;;;;;5063260;28;20439;-64
2021/10/21 05:26:15;;;;;;;5.78;4.28;;;23.40;68.60;;;;;;5071504;28;20033;-65
2021/10/21 05:28:43;;;;;;;4.60;4.18;;;23.40;67.20;;;;;;5072149;28;20467;-65
2021/10/21 05:31:11;;;;;;;6.00;3.92;;;23.40;66.60;;;;;;5072024;28;20032;-63
2021/10/21 05:33:39;;;;;;;5.93;5.20;;;23.50;67.20;;;;;;5067360;28;20036;-63
2021/10/21 05:36:07;;;;;;;6.38;5.78;;;23.50;69.00;;;;;;5072562;28;20510;-62
2021/10/21 05:38:34;;;;;;;6.22;4.93;;;23.50;68.90;;;;;;5071155;28;20047;-64
2021/10/21 05:41:01;;;;;;;7.47;6.78;;;23.50;66.80;;;;;;5070772;28;20020;-59
2021/10/21 05:43:30;;;;;;;10.00;8.07;;;23.50;68.50;;;;;;5068233;28;20058;-59
2021/10/21 05:45:58;;;;;;;8.70;7.80;;;23.50;67.00;;;;;;5069109;28;20475;-58
2021/10/21 05:48:27;;;;;;;8.50;5.72;;;23.60;68.30;;;;;;5070971;28;20063;-59
2021/10/21 05:50:55;;;;;;;7.78;5.80;;;23.50;66.20;;;;;;5070238;28;20046;-55
2021/10/21 05:53:22;;;;;;;9.75;8.38;;;23.70;66.90;;;;;;5066117;28;20083;-59
2021/10/21 05:55:49;;;;;;;11.05;9.05;;;23.60;66.80;;;;;;5071500;28;20531;-59
2021/10/21 05:58:17;;;;;;;10.15;8.88;;;23.50;67.60;;;;;;5070990;28;20032;-65
2021/10/21 06:00:44;;;;;;;7.38;6.68;;;23.50;68.30;;;;;;5071918;28;20025;-56
2021/10/21 06:03:12;;;;;;;8.90;5.97;;;23.40;68.40;;;;;;5067164;28;20198;-57
2021/10/21 06:05:39;;;;;;;6.15;5.35;;;23.40;66.10;;;;;;5071189;28;20493;-56
2021/10/21 06:08:07;;;;;;;10.65;5.68;;;23.50;68.00;;;;;;5072157;28;20039;-60
2021/10/21 06:10:34;;;;;;;9.77;5.80;;;23.40;69.10;;;;;;5072079;28;20024;-62
2021/10/21 06:13:04;;;;;;;4.50;4.10;;;23.30;69.40;;;;;;5067754;28;20025;-63
2021/10/21 06:15:32;;;;;;;7.78;4.93;;;23.30;69.40;;;;;;5070491;28;20023;-62
2021/10/21 06:18:03;;;;;;;4.95;3.53;;;23.40;69.40;;;;;;5071767;28;20025;-65
2021/10/21 06:20:30;;;;;;;5.63;4.90;;;23.30;68.60;;;;;;5075222;28;20104;-63
2021/10/21 06:22:58;;;;;;;4.93;4.32;;;23.30;69.50;;;;;;5074911;28;20096;-63
2021/10/21 06:25:25;;;;;;;7.18;3.50;;;23.20;69.80;;;;;;5074744;28;20024;-65
2021/10/21 06:27:55;;;;;;;4.50;3.67;;;23.20;67.30;;;;;;5073048;28;20382;-67
2021/10/21 06:30:22;;;;;;;5.63;4.47;;;23.20;68.30;;;;;;5074435;28;20051;-63
2021/10/21 06:32:50;;;;;;;7.63;4.60;;;23.20;69.90;;;;;;5074309;28;20028;-66
2021/10/21 06:35:18;;;;;;;4.35;3.15;;;23.10;70.70;;;;;;5073007;28;20035;-59
2021/10/21 06:38:15;;;;;;;6.22;3.47;;;23.10;69.90;;;;;;5072974;28;20036;-61
2021/10/21 06:40:52;;;;;;;4.80;3.40;;;23.10;70.40;;;;;;5072889;28;20033;-58
2021/10/21 06:43:47;;;;;;;7.68;3.75;;;23.00;70.30;;;;;;5064426;28;20107;-58
2021/10/21 06:46:29;;;;;;;5.65;3.25;;;23.10;70.50;;;;;;5067491;28;20055;-59
2021/10/21 06:48:58;;;;;;;4.07;2.88;;;23.10;69.40;;;;;;5071012;28;20066;-55
2021/10/21 06:51:26;;;;;;;4.47;2.67;;;23.00;70.30;;;;;;5070280;28;20035;-57
2021/10/21 06:53:54;;;;;;;3.80;2.42;;;23.00;69.50;;;;;;5069646;28;20120;-65
2021/10/21 06:56:21;;;;;;;4.65;2.53;;;23.00;69.80;;;;;;5073712;28;20030;-61
2021/10/21 06:58:49;;;;;;;4.30;2.20;;;22.90;69.90;;;;;;5072671;28;20033;-62
2021/10/21 07:01:16;;;;;;;3.58;1.70;;;23.00;69.20;;;;;;5073735;28;20033;-62
2021/10/21 07:03:44;;;;;;;4.13;2.13;;;22.90;69.70;;;;;;5073612;28;20471;-63
2021/10/21 07:06:11;;;;;;;4.55;1.70;;;22.90;67.60;;;;;;5073947;28;20033;-61
2021/10/21 07:08:39;;;;;;;4.55;2.30;;;22.90;68.70;;;;;;5072482;28;20387;-62
2021/10/21 07:11:08;;;;;;;4.80;1.70;;;22.80;70.10;;;;;;5073374;28;20071;-63
2021/10/21 07:13:37;;;;;;;5.45;2.55;;;22.80;70.00;;;;;;5073773;28;20116;-61
2021/10/21 07:16:06;;;;;;;4.75;2.50;;;22.70;70.50;;;;;;5073849;28;20399;-62
2021/10/21 07:18:34;;;;;;;3.00;1.13;;;22.70;69.50;;;;;;5073410;28;20040;-60
2021/10/21 07:21:01;;;;;;;3.10;1.55;;;22.70;68.50;;;;;;5072600;28;20661;-63
2021/10/21 07:23:29;;;;;;;2.63;1.50;;;22.80;68.30;;;;;;5073555;28;20035;-61
2021/10/21 07:25:56;;;;;;;4.28;2.05;;;22.70;68.50;;;;;;5073129;28;20021;-62
2021/10/21 07:28:24;;;;;;;4.38;1.67;;;22.70;71.00;;;;;;5073677;28;20028;-61
2021/10/21 07:30:54;;;;;;;5.97;2.33;;;22.70;70.40;;;;;;5073380;28;20408;-63
2021/10/21 07:33:22;;;;;;;3.17;1.27;;;22.60;71.00;;;;;;5073425;28;20505;-62
2021/10/21 07:35:49;;;;;;;4.57;1.20;;;22.60;68.60;;;;;;5072005;28;20412;-62
2021/10/21 07:38:17;;;;;;;4.88;1.45;;;22.50;68.80;;;;;;5071890;28;20033;-63
2021/10/21 07:40:44;;;;;;;7.18;2.00;;;22.50;71.20;;;;;;5073159;28;20541;-62
2021/10/21 07:43:15;;;;;;;5.50;2.03;;;22.40;71.50;;;;;;5073588;28;20028;-63
2021/10/21 07:45:44;;;;;;;2.38;1.35;;;22.40;70.30;;;;;;5072053;28;20024;-62
2021/10/21 07:48:12;;;;;;;3.60;1.25;;;22.40;71.40;;;;;;5072384;28;20108;-63
2021/10/21 07:50:39;;;;;;;2.47;1.20;;;22.40;70.50;;;;;;5073412;28;20032;-64
2021/10/21 07:53:08;;;;;;;3.45;1.63;;;22.40;71.30;;;;;;5072812;28;20044;-62
2021/10/21 07:55:36;;;;;;;6.00;1.30;;;22.30;71.90;;;;;;5072813;28;20024;-61
2021/10/21 07:58:04;;;;;;;2.95;1.38;;;22.30;71.70;;;;;;5073487;28;20495;-65
2021/10/21 08:00:32;;;;;;;3.05;1.55;;;22.30;73.10;;;;;;5071936;28;20078;-55
2021/10/21 08:03:03;;;;;;;4.07;1.75;;;22.40;74.80;;;;;;5073298;28;20025;-62
2021/10/21 08:05:31;;;;;;;6.60;1.67;;;22.40;74.60;;;;;;5073144;28;20021;-55
2021/10/21 08:08:03;;;;;;;2.38;1.25;;;22.40;75.70;;;;;;5072538;28;20024;-61
2021/10/21 08:10:31;;;;;;;2.55;1.70;;;22.30;74.50;;;;;;5071816;28;20028;-63
2021/10/21 08:13:02;;;;;;;14.05;1.88;;;22.30;76.20;;;;;;5073305;28;20506;-61
2021/10/21 08:15:29;;;;;;;8.13;1.70;;;22.30;76.80;;;;;;5073150;28;20040;-62
2021/10/21 08:17:57;;;;;;;6.07;1.50;;;22.30;78.20;;;;;;5072871;28;20127;-61
2021/10/21 08:20:27;;;;;;;8.45;1.92;;;22.30;78.80;;;;;;5073680;28;20029;-57
2021/10/21 08:22:54;;;;;;;9.90;1.77;;;22.30;80.30;;;;;;5072958;28;20028;-63
2021/10/21 08:25:25;;;;;;;14.57;2.88;;;22.30;80.10;;;;;;5073034;28;20017;-59
2021/10/21 08:27:53;;;;;;;8.65;2.00;;;22.30;80.30;;;;;;5072627;28;20111;-60
2021/10/21 08:30:24;;;;;;;7.40;1.95;;;22.30;81.60;;;;;;5072761;28;20382;-62
2021/10/21 08:32:55;;;;;;;16.25;2.97;;;22.30;82.40;;;;;;5072945;28;20375;-60
2021/10/21 08:35:24;;;;;;;16.08;3.03;;;22.30;82.80;;;;;;5072561;28;20082;-56
2021/10/21 08:37:51;;;;;;;10.70;3.05;;;22.30;83.20;;;;;;5072295;28;20038;-59
2021/10/21 08:40:18;;;;;;;10.15;2.75;;;22.30;83.50;;;;;;5072191;28;20462;-59
2021/10/21 08:42:47;;;;;;;6.80;2.35;;;22.30;84.20;;;;;;5072031;28;20036;-65
2021/10/21 08:45:15;;;;;;;9.98;2.97;;;22.30;83.90;;;;;;5071460;28;20459;-66
2021/10/21 08:47:45;;;;;;;8.73;2.45;;;22.30;84.20;;;;;;5071957;28;20047;-68
2021/10/21 08:50:14;;;;;;;14.50;3.42;;;22.30;84.90;;;;;;5072368;28;20136;-67
2021/10/21 08:52:43;;;;;;;14.07;3.08;;;22.30;84.70;;;;;;5071788;28;20045;-68
2021/10/21 08:55:11;;;;;;;15.95;3.42;;;22.20;85.00;;;;;;5071330;28;20020;-72
2021/10/21 08:57:39;;;;;;;12.50;3.42;;;22.20;85.50;;;;;;5072938;28;20032;-69
2021/10/21 09:00:08;;;;;;;14.85;3.47;;;22.20;85.00;;;;;;5074958;28;20016;-72
2021/10/21 09:02:54;;;;;;;28.13;3.40;;;22.20;85.70;;;;;;5077140;28;20078;-66
2021/10/21 09:08:30;;;;;;;7.63;2.30;;;22.20;85.90;;;;;;5031413;28;20092;-62
2021/10/21 09:10:58;;;;;;;5.03;2.08;;;22.20;85.20;;;;;;5064076;28;20040;-60
2021/10/21 09:13:26;;;;;;;5.40;1.98;;;22.20;84.70;;;;;;5071693;28;20082;-57
2021/10/21 09:15:56;;;;;;;8.88;2.15;;;22.10;84.60;;;;;;5073033;28;20032;-61
2021/10/21 09:18:42;;;;;;;4.65;1.67;;;22.10;84.50;;;;;;5071764;28;20045;-62
2021/10/21 09:21:10;;;;;;;7.30;1.50;;;22.10;83.80;;;;;;5075360;28;20139;-63
2021/10/21 09:23:37;;;;;;;8.15;1.98;;;22.10;82.70;;;;;;5071852;28;20518;-58
2021/10/21 09:26:11;;;;;;;6.93;1.77;;;22.10;82.60;;;;;;5073208;28;20033;-61
2021/10/21 09:28:38;;;;;;;9.10;2.20;;;22.10;82.40;;;;;;5069508;28;20039;-63
2021/10/21 09:31:12;;;;;;;7.78;1.80;;;22.00;82.40;;;;;;5074583;28;20112;-61
2021/10/21 09:33:45;;;;;;;5.22;1.73;;;22.00;82.40;;;;;;5072844;28;20121;-58
2021/10/21 09:36:13;;;;;;;5.45;2.08;;;22.00;82.30;;;;;;5072999;28;20030;-60
2021/10/21 09:38:59;;;;;;;5.80;2.20;;;22.00;82.80;;;;;;5070108;28;20458;-61
2021/10/21 09:41:35;;;;;;;3.38;1.38;;;22.00;82.60;;;;;;5073335;28;20027;-61
2021/10/21 09:44:26;;;;;;;4.18;1.58;;;22.00;82.70;;;;;;5074558;28;20020;-62
2021/10/21 09:46:55;;;;;;;7.45;1.60;;;22.00;82.60;;;;;;5073007;28;20123;-61
2021/10/21 09:49:33;;;;;;;3.35;1.42;;;21.90;82.80;;;;;;5069136;28;20029;-61
2021/10/21 09:52:01;;;;;;;4.25;1.52;;;21.90;82.50;;;;;;5074859;28;20051;-65
2021/10/21 09:54:30;;;;;;;3.83;1.90;;;21.90;82.40;;;;;;5075059;28;20055;-50
2021/10/21 09:57:03;;;;;;;5.47;1.50;;;21.80;82.30;;;;;;5074341;28;20032;-62
2021/10/21 09:59:37;;;;;;;2.80;1.38;;;21.80;82.20;;;;;;5071568;28;20699;-61
2021/10/21 10:02:15;;;;;;;2.35;1.13;;;21.80;82.00;;;;;;5072880;28;20043;-58
2021/10/21 10:04:48;;;;;;;4.85;1.48;;;21.90;82.20;;;;;;5074575;28;20036;-58
2021/10/21 10:07:16;;;;;;;4.47;1.50;;;21.80;82.20;;;;;;5073279;28;20028;-59
2021/10/21 10:09:43;;;;;;;4.40;1.42;;;21.80;82.10;;;;;;5072541;28;20377;-62
2021/10/21 10:12:11;;;;;;;2.53;1.15;;;21.80;82.20;;;;;;5071278;28;20568;-61
2021/10/21 10:14:46;;;;;;;4.25;1.60;;;21.80;82.20;;;;;;5071263;28;20073;-62
2021/10/21 10:17:18;;;;;;;3.58;1.50;;;21.80;82.20;;;;;;5070258;28;20440;-58
2021/10/21 10:19:46;;;;;;;;;;;21.70;82.10;;;;;;5069802;28;20040;-59
2021/10/21 10:22:19;;;;;;;3.50;1.15;;;21.80;82.20;;;;;;5071453;28;19999;-60
2021/10/21 10:24:48;;;;;;;4.00;1.27;;;21.70;82.10;;;;;;5070884;28;20021;-61
2021/10/21 10:27:20;;;;;;;2.10;1.02;;;21.80;82.20;;;;;;5070360;28;20067;-65
2021/10/21 10:29:48;;;;;;;5.22;1.90;;;21.70;82.10;;;;;;5070153;28;20027;-55
2021/10/21 10:32:39;;;;;;;2.80;1.25;;;21.70;82.20;;;;;;5071665;28;20029;-59
2021/10/21 10:35:15;;;;;;;3.20;1.00;;;21.70;82.20;;;;;;5071548;28;20056;-57
2021/10/21 10:37:45;;;;;;;2.60;1.13;;;21.70;82.10;;;;;;5064951;28;20047;-53
2021/10/21 10:40:14;;;;;;;2.95;1.45;;;21.70;82.30;;;;;;5070627;28;20032;-60
2021/10/21 10:42:43;;;;;;;3.80;1.35;;;21.70;82.10;;;;;;5070841;28;20032;-60
2021/10/21 10:45:12;;;;;;;3.60;1.40;;;21.60;82.20;;;;;;5071357;28;20422;-65
2021/10/21 10:47:42;;;;;;;2.53;0.82;;;21.70;82.10;;;;;;5067210;28;20495;-54
2021/10/21 10:50:36;;;;;;;5.18;1.45;;;21.60;82.20;;;;;;5071782;28;20024;-52
2021/10/21 10:53:07;;;;;;;4.68;1.10;;;21.60;82.00;;;;;;5062060;28;20059;-61
2021/10/21 10:55:47;;;;;;;3.75;1.33;;;21.60;82.10;;;;;;5068918;28;20055;-60
2021/10/21 10:58:26;;;;;;;4.15;1.73;;;21.60;82.20;;;;;;5066115;28;20090;-62
2021/10/21 11:01:00;;;;;;;3.42;1.27;;;21.60;82.30;;;;;;5071134;28;20021;-57
2021/10/21 11:03:37;;;;;;;2.67;1.15;;;21.60;82.30;;;;;;5070185;28;20035;-61
2021/10/21 11:06:16;;;;;;;2.38;1.35;;;21.60;82.10;;;;;;5069831;28;20028;-61
2021/10/21 11:09:07;;;;;;;2.08;1.10;;;21.60;82.90;;;;;;5066160;28;20040;-61
2021/10/21 11:11:40;;;;;;;3.28;1.35;;;21.50;82.00;;;;;;5073511;28;20429;-66
2021/10/21 11:14:16;;;;;;;4.03;1.70;;;21.50;82.10;;;;;;5073381;28;20501;-66
2021/10/21 11:16:48;;;;;;;4.10;1.33;;;21.50;82.60;;;;;;5073499;28;20438;-68
2021/10/21 11:19:41;;;;;;;4.00;1.40;;;21.50;82.70;;;;;;5073985;28;20029;-64
2021/10/21 11:22:08;;;;;;;;;;;21.40;82.30;;;;;;5061985;28;20439;-66
2021/10/21 11:24:54;;;;;;;2.97;1.17;;;21.40;82.40;;;;;;5072263;28;20266;-66
2021/10/21 11:27:25;;;;;;;9.93;1.40;;;21.40;82.40;;;;;;5071605;28;20028;-67
2021/10/21 11:29:53;;;;;;;4.28;1.00;;;21.40;82.40;;;;;;5073510;28;20028;-63
2021/10/21 11:32:22;;;;;;;3.30;1.20;;;21.40;82.50;;;;;;5073913;28;20028;-65
2021/10/21 11:34:51;;;;;;;6.00;1.50;;;21.30;82.30;;;;;;5072664;28;20383;-64
2021/10/21 11:37:43;;;;;;;3.90;1.45;;;21.30;82.60;;;;;;5070929;28;20032;-70
2021/10/21 11:40:25;;;;;;;4.63;1.60;;;21.30;82.60;;;;;;5072966;28;20040;-68
2021/10/21 11:42:55;;;;;;;1.80;0.95;;;21.30;82.90;;;;;;5073591;28;20380;-64
2021/10/21 11:45:31;;;;;;;3.83;1.85;;;21.30;82.70;;;;;;5073799;28;20498;-64
2021/10/21 11:48:01;;;;;;;4.07;1.45;;;21.20;82.60;;;;;;5073499;28;20024;-66
2021/10/21 11:50:46;;;;;;;4.50;1.27;;;21.20;82.50;;;;;;5073458;28;20034;-67
2021/10/21 11:53:16;;;;;;;2.33;1.17;;;21.20;82.60;;;;;;5073165;28;20052;-67
2021/10/21 11:55:45;;;;;;;2.25;1.13;;;21.20;82.60;;;;;;5073390;28;20024;-64
2021/10/21 11:58:19;;;;;;;2.13;1.08;;;21.20;82.70;;;;;;5072958;28;20541;-63
2021/10/21 12:00:50;;;;;;;3.08;1.33;;;21.20;82.80;;;;;;5072882;28;20032;-64
2021/10/21 12:03:18;;;;;;;3.47;1.10;;;21.10;82.70;;;;;;5071450;28;20475;-67
2021/10/21 12:05:46;;;;;;;2.47;1.13;;;21.10;82.80;;;;;;5073405;28;20036;-66
2021/10/21 12:08:22;;;;;;;2.15;1.15;;;21.10;82.80;;;;;;5073142;28;20024;-67
2021/10/21 12:10:53;;;;;;;3.42;1.15;;;21.10;82.80;;;;;;5072425;28;20515;-65
2021/10/21 12:13:31;;;;;;;3.70;1.38;;;21.10;82.70;;;;;;5072074;28;20029;-68
2021/10/21 12:16:01;;;;;;;2.70;1.30;;;21.10;82.90;;;;;;5072765;28;20111;-62
2021/10/21 12:18:32;;;;;;;3.47;1.48;;;21.10;82.80;;;;;;5072579;28;20036;-60
2021/10/21 12:21:07;;;;;;;3.70;1.25;;;21.00;82.80;;;;;;5063908;28;20021;-60
2021/10/21 12:23:36;;;;;;;4.10;1.50;;;21.00;82.80;;;;;;5068573;28;20028;-61
2021/10/21 12:26:08;;;;;;;2.88;1.00;;;21.10;82.50;;;;;;5070014;28;20031;-62
2021/10/21 12:28:47;;;;;;;4.88;1.75;;;21.10;82.40;;;;;;5068796;28;20382;-63
2021/10/21 12:31:27;;;;;;;4.60;1.15;;;21.00;82.60;;;;;;5068036;28;20025;-64
2021/10/21 12:34:02;;;;;;;8.35;2.38;;;21.00;82.70;;;;;;5069004;28;20036;-63
2021/10/21 12:36:35;;;;;;;5.28;1.27;;;21.00;82.70;;;;;;5065816;28;20025;-61
2021/10/21 12:39:11;;;;;;;4.63;1.40;;;21.00;82.60;;;;;;5064664;28;20115;-61
2021/10/21 12:41:55;;;;;;;2.47;1.40;;;20.90;83.60;;;;;;5067791;28;20055;-62
2021/10/21 12:44:29;;;;;;;3.00;1.30;;;20.90;82.70;;;;;;5068071;28;20025;-61
2021/10/21 12:47:19;;;;;;;4.45;1.65;;;20.90;82.70;;;;;;5067753;28;20475;-61
2021/10/21 12:50:04;;;;;;;2.22;1.45;;;20.90;82.60;;;;;;5067954;28;20033;-64
2021/10/21 12:52:56;;;;;;;3.17;1.33;;;20.90;82.80;;;;;;5066888;28;20499;-62
2021/10/21 12:55:29;;;;;;;3.90;1.20;;;20.80;82.60;;;;;;5068374;28;20167;-61
2021/10/21 12:58:02;;;;;;;2.38;1.38;;;20.80;82.60;;;;;;5065148;28;20054;-62
2021/10/21 13:00:34;;;;;;;4.03;1.50;;;20.80;82.40;;;;;;5069368;28;20379;-62
2021/10/21 13:03:10;;;;;;;3.20;1.67;;;20.80;82.40;;;;;;5069170;28;20032;-64